Terminal Aerodrome Forecast
Issued by NWS Des Moines, IA

Home | Current Version | Previous Version | Text Only | Print | Product List | Glossary On
Versions: 1 2 3 4 5 6 7 8 9 10 11 12 13 14 15 16 17 18 19 20 21 22 23 24
000
FTUS43 KDMX 301322 AAA
TAFALO
TAF AMD
KALO 301322Z 3013/0112 09015G22KT 5SM BR OVC012
      TEMPO 3013/3016 2SM -SHRA BR BKN007
     FM301600 08015G22KT 3SM -RA BR BKN007 OVC012
     FM301900 06017G25KT 6SM BR BKN009
     FM010300 05015KT 3SM BR OVC009=

USA.gov is the U.S. government's official web portal to all federal, state and local government web resources and services.